sensor_id;sensor_type;location;lat;lon;timestamp;temperature;humidity
26641;DHT22;14269;47.358;0.724;2023-01-10T00:01:21;6.0;74.0
26641;DHT22;14269;47.358;0.724;2023-01-10T00:03:53;6.0;74.0
26641;DHT22;14269;47.358;0.724;2023-01-10T00:06:24;6.0;75.0
26641;DHT22;14269;47.358;0.724;2023-01-10T00:08:56;6.0;74.0
26641;DHT22;14269;47.358;0.724;2023-01-10T00:13:51;6.0;75.0
26641;DHT22;14269;47.358;0.724;2023-01-10T00:16:31;6.0;75.0
26641;DHT22;14269;47.358;0.724;2023-01-10T00:19:02;6.0;75.0
26641;DHT22;14269;47.358;0.724;2023-01-10T00:21:34;6.0;75.0
26641;DHT22;14269;47.358;0.724;2023-01-10T00:24:14;6.0;76.0
26641;DHT22;14269;47.358;0.724;2023-01-10T00:26:58;6.0;76.0
26641;DHT22;14269;47.358;0.724;2023-01-10T00:29:30;6.0;76.0
26641;DHT22;14269;47.358;0.724;2023-01-10T00:32:01;6.0;76.0
26641;DHT22;14269;47.358;0.724;2023-01-10T00:34:33;6.0;75.0
26641;DHT22;14269;47.358;0.724;2023-01-10T00:37:14;6.0;75.0
26641;DHT22;14269;47.358;0.724;2023-01-10T00:39:46;6.0;75.0
26641;DHT22;14269;47.358;0.724;2023-01-10T00:44:39;6.0;75.0
26641;DHT22;14269;47.358;0.724;2023-01-10T00:47:12;6.0;76.0
26641;DHT22;14269;47.358;0.724;2023-01-10T00:49:53;6.0;75.0
26641;DHT22;14269;47.358;0.724;2023-01-10T00:52:24;6.0;75.0
26641;DHT22;14269;47.358;0.724;2023-01-10T00:54:56;6.0;75.0
26641;DHT22;14269;47.358;0.724;2023-01-10T00:57:27;6.0;74.0
26641;DHT22;14269;47.358;0.724;2023-01-10T00:59:59;6.0;75.0
26641;DHT22;14269;47.358;0.724;2023-01-10T01:02:31;6.0;74.0
26641;DHT22;14269;47.358;0.724;2023-01-10T01:05:04;6.0;75.0
26641;DHT22;14269;47.358;0.724;2023-01-10T01:07:47;6.0;75.0
26641;DHT22;14269;47.358;0.724;2023-01-10T01:10:26;6.0;75.0
26641;DHT22;14269;47.358;0.724;2023-01-10T01:13:05;6.0;75.0
26641;DHT22;14269;47.358;0.724;2023-01-10T01:15:39;6.0;75.0
26641;DHT22;14269;47.358;0.724;2023-01-10T01:18:14;6.0;75.0
26641;DHT22;14269;47.358;0.724;2023-01-10T01:20:56;6.0;75.0
26641;DHT22;14269;47.358;0.724;2023-01-10T01:23:35;6.0;75.0
26641;DHT22;14269;47.358;0.724;2023-01-10T01:26:06;7.0;74.0
26641;DHT22;14269;47.358;0.724;2023-01-10T01:28:38;7.0;75.0
26641;DHT22;14269;47.358;0.724;2023-01-10T01:31:09;7.0;75.0
26641;DHT22;14269;47.358;0.724;2023-01-10T01:33:41;7.0;75.0
26641;DHT22;14269;47.358;0.724;2023-01-10T01:36:13;6.0;75.0
26641;DHT22;14269;47.358;0.724;2023-01-10T01:38:44;6.0;75.0
26641;DHT22;14269;47.358;0.724;2023-01-10T01:42:23;6.0;75.0
26641;DHT22;14269;47.358;0.724;2023-01-10T01:45:33;7.0;75.0
26641;DHT22;14269;47.358;0.724;2023-01-10T01:48:17;6.0;75.0
26641;DHT22;14269;47.358;0.724;2023-01-10T01:50:56;7.0;75.0
26641;DHT22;14269;47.358;0.724;2023-01-10T01:53:39;7.0;75.0
26641;DHT22;14269;47.358;0.724;2023-01-10T01:56:20;7.0;75.0
26641;DHT22;14269;47.358;0.724;2023-01-10T01:59:00;7.0;75.0
26641;DHT22;14269;47.358;0.724;2023-01-10T02:01:40;7.0;75.0
26641;DHT22;14269;47.358;0.724;2023-01-10T02:04:24;7.0;74.0
26641;DHT22;14269;47.358;0.724;2023-01-10T02:07:03;7.0;75.0
26641;DHT22;14269;47.358;0.724;2023-01-10T02:09:39;7.0;75.0
26641;DHT22;14269;47.358;0.724;2023-01-10T02:12:16;7.0;75.0
26641;DHT22;14269;47.358;0.724;2023-01-10T02:14:49;7.0;75.0
26641;DHT22;14269;47.358;0.724;2023-01-10T02:17:30;7.0;74.0
26641;DHT22;14269;47.358;0.724;2023-01-10T02:20:04;7.0;74.0
26641;DHT22;14269;47.358;0.724;2023-01-10T02:23:02;7.0;74.0
26641;DHT22;14269;47.358;0.724;2023-01-10T02:25:58;7.0;74.0
26641;DHT22;14269;47.358;0.724;2023-01-10T02:28:54;7.0;74.0
26641;DHT22;14269;47.358;0.724;2023-01-10T02:31:56;7.0;75.0
26641;DHT22;14269;47.358;0.724;2023-01-10T02:34:35;7.0;75.0
26641;DHT22;14269;47.358;0.724;2023-01-10T02:37:16;7.0;75.0
26641;DHT22;14269;47.358;0.724;2023-01-10T02:39:58;7.0;75.0
26641;DHT22;14269;47.358;0.724;2023-01-10T02:42:42;6.0;75.0
26641;DHT22;14269;47.358;0.724;2023-01-10T02:45:22;7.0;76.0
26641;DHT22;14269;47.358;0.724;2023-01-10T02:47:59;7.0;75.0
26641;DHT22;14269;47.358;0.724;2023-01-10T02:50:44;7.0;75.0
26641;DHT22;14269;47.358;0.724;2023-01-10T02:53:27;7.0;75.0
26641;DHT22;14269;47.358;0.724;2023-01-10T02:56:18;7.0;76.0
26641;DHT22;14269;47.358;0.724;2023-01-10T02:59:09;7.0;76.0
26641;DHT22;14269;47.358;0.724;2023-01-10T03:01:56;7.0;76.0
26641;DHT22;14269;47.358;0.724;2023-01-10T03:04:35;7.0;76.0
26641;DHT22;14269;47.358;0.724;2023-01-10T03:07:18;7.0;76.0
26641;DHT22;14269;47.358;0.724;2023-01-10T03:09:57;7.0;76.0
26641;DHT22;14269;47.358;0.724;2023-01-10T03:12:40;7.0;76.0
26641;DHT22;14269;47.358;0.724;2023-01-10T03:15:18;7.0;76.0
26641;DHT22;14269;47.358;0.724;2023-01-10T03:18:01;7.0;76.0
26641;DHT22;14269;47.358;0.724;2023-01-10T03:20:42;7.0;76.0
26641;DHT22;14269;47.358;0.724;2023-01-10T03:23:23;7.0;76.0
26641;DHT22;14269;47.358;0.724;2023-01-10T03:26:05;7.0;76.0
26641;DHT22;14269;47.358;0.724;2023-01-10T03:28:49;7.0;76.0
26641;DHT22;14269;47.358;0.724;2023-01-10T03:31:31;7.0;76.0
26641;DHT22;14269;47.358;0.724;2023-01-10T03:34:10;7.0;75.0
26641;DHT22;14269;47.358;0.724;2023-01-10T03:36:46;7.0;76.0
26641;DHT22;14269;47.358;0.724;2023-01-10T03:39:29;7.0;76.0
26641;DHT22;14269;47.358;0.724;2023-01-10T03:42:09;7.0;77.0
26641;DHT22;14269;47.358;0.724;2023-01-10T03:44:52;7.0;76.0
26641;DHT22;14269;47.358;0.724;2023-01-10T03:47:32;7.0;76.0
26641;DHT22;14269;47.358;0.724;2023-01-10T03:50:13;7.0;76.0
26641;DHT22;14269;47.358;0.724;2023-01-10T03:52:52;7.0;76.0
26641;DHT22;14269;47.358;0.724;2023-01-10T03:55:26;7.0;76.0
26641;DHT22;14269;47.358;0.724;2023-01-10T03:58:06;7.0;77.0
26641;DHT22;14269;47.358;0.724;2023-01-10T04:00:38;7.0;77.0
26641;DHT22;14269;47.358;0.724;2023-01-10T04:03:18;7.0;77.0
26641;DHT22;14269;47.358;0.724;2023-01-10T04:05:50;7.0;76.0
26641;DHT22;14269;47.358;0.724;2023-01-10T04:08:22;7.0;76.0
26641;DHT22;14269;47.358;0.724;2023-01-10T04:10:53;7.0;77.0
26641;DHT22;14269;47.358;0.724;2023-01-10T04:13:25;7.0;76.0
26641;DHT22;14269;47.358;0.724;2023-01-10T04:15:58;7.0;76.0
26641;DHT22;14269;47.358;0.724;2023-01-10T04:18:39;7.0;77.0
26641;DHT22;14269;47.358;0.724;2023-01-10T04:21:10;7.0;77.0
26641;DHT22;14269;47.358;0.724;2023-01-10T04:23:42;7.0;77.0
26641;DHT22;14269;47.358;0.724;2023-01-10T04:26:13;7.0;77.0
26641;DHT22;14269;47.358;0.724;2023-01-10T04:28:45;7.0;77.0
26641;DHT22;14269;47.358;0.724;2023-01-10T04:31:17;7.0;77.0
26641;DHT22;14269;47.358;0.724;2023-01-10T04:33:48;7.0;77.0
26641;DHT22;14269;47.358;0.724;2023-01-10T04:36:20;7.0;77.0
26641;DHT22;14269;47.358;0.724;2023-01-10T04:38:52;7.0;77.0
26641;DHT22;14269;47.358;0.724;2023-01-10T04:41:23;7.0;77.0
26641;DHT22;14269;47.358;0.724;2023-01-10T04:43:55;7.0;77.0
26641;DHT22;14269;47.358;0.724;2023-01-10T04:46:27;7.0;77.0
26641;DHT22;14269;47.358;0.724;2023-01-10T04:48:59;7.0;77.0
26641;DHT22;14269;47.358;0.724;2023-01-10T04:51:30;7.0;77.0
26641;DHT22;14269;47.358;0.724;2023-01-10T04:54:02;8.0;77.0
26641;DHT22;14269;47.358;0.724;2023-01-10T04:56:33;8.0;76.0
26641;DHT22;14269;47.358;0.724;2023-01-10T04:59:05;7.0;77.0
26641;DHT22;14269;47.358;0.724;2023-01-10T05:01:38;7.0;77.0
26641;DHT22;14269;47.358;0.724;2023-01-10T05:04:18;7.0;77.0
26641;DHT22;14269;47.358;0.724;2023-01-10T05:06:50;8.0;77.0
26641;DHT22;14269;47.358;0.724;2023-01-10T05:09:21;8.0;77.0
26641;DHT22;14269;47.358;0.724;2023-01-10T05:11:54;8.0;77.0
26641;DHT22;14269;47.358;0.724;2023-01-10T05:14:25;8.0;77.0
26641;DHT22;14269;47.358;0.724;2023-01-10T05:16:56;8.0;77.0
26641;DHT22;14269;47.358;0.724;2023-01-10T05:19:28;8.0;77.0
26641;DHT22;14269;47.358;0.724;2023-01-10T05:22:00;8.0;77.0
26641;DHT22;14269;47.358;0.724;2023-01-10T05:24:31;8.0;77.0
26641;DHT22;14269;47.358;0.724;2023-01-10T05:27:03;8.0;77.0
26641;DHT22;14269;47.358;0.724;2023-01-10T05:29:35;8.0;76.0
26641;DHT22;14269;47.358;0.724;2023-01-10T05:32:06;8.0;76.0
26641;DHT22;14269;47.358;0.724;2023-01-10T05:34:38;8.0;77.0
26641;DHT22;14269;47.358;0.724;2023-01-10T05:37:10;8.0;77.0
26641;DHT22;14269;47.358;0.724;2023-01-10T05:39:42;8.0;78.0
26641;DHT22;14269;47.358;0.724;2023-01-10T05:42:13;8.0;78.0
26641;DHT22;14269;47.358;0.724;2023-01-10T05:44:45;8.0;78.0
26641;DHT22;14269;47.358;0.724;2023-01-10T05:47:16;8.0;78.0
26641;DHT22;14269;47.358;0.724;2023-01-10T05:49:48;8.0;78.0
26641;DHT22;14269;47.358;0.724;2023-01-10T05:52:20;8.0;78.0
26641;DHT22;14269;47.358;0.724;2023-01-10T05:54:51;8.0;78.0
26641;DHT22;14269;47.358;0.724;2023-01-10T05:57:23;8.0;78.0
26641;DHT22;14269;47.358;0.724;2023-01-10T05:59:54;8.0;78.0
26641;DHT22;14269;47.358;0.724;2023-01-10T06:02:26;8.0;78.0
26641;DHT22;14269;47.358;0.724;2023-01-10T06:04:58;8.0;78.0
26641;DHT22;14269;47.358;0.724;2023-01-10T06:07:31;8.0;79.0
26641;DHT22;14269;47.358;0.724;2023-01-10T06:10:11;8.0;79.0
26641;DHT22;14269;47.358;0.724;2023-01-10T06:12:43;8.0;79.0
26641;DHT22;14269;47.358;0.724;2023-01-10T06:15:15;8.0;78.0
26641;DHT22;14269;47.358;0.724;2023-01-10T06:17:46;8.0;78.0
26641;DHT22;14269;47.358;0.724;2023-01-10T06:20:18;8.0;78.0
26641;DHT22;14269;47.358;0.724;2023-01-10T06:22:49;8.0;78.0
26641;DHT22;14269;47.358;0.724;2023-01-10T06:25:21;8.0;78.0
26641;DHT22;14269;47.358;0.724;2023-01-10T06:27:53;8.0;78.0
26641;DHT22;14269;47.358;0.724;2023-01-10T06:30:24;8.0;79.0
26641;DHT22;14269;47.358;0.724;2023-01-10T06:32:59;8.0;79.0
26641;DHT22;14269;47.358;0.724;2023-01-10T06:35:38;8.0;79.0
26641;DHT22;14269;47.358;0.724;2023-01-10T06:38:09;8.0;78.0
26641;DHT22;14269;47.358;0.724;2023-01-10T06:40:41;8.0;78.0
26641;DHT22;14269;47.358;0.724;2023-01-10T06:43:13;8.0;78.0
26641;DHT22;14269;47.358;0.724;2023-01-10T06:45:44;8.0;78.0
26641;DHT22;14269;47.358;0.724;2023-01-10T06:48:16;8.0;78.0
26641;DHT22;14269;47.358;0.724;2023-01-10T06:50:48;8.0;79.0
26641;DHT22;14269;47.358;0.724;2023-01-10T06:53:19;8.0;79.0
26641;DHT22;14269;47.358;0.724;2023-01-10T06:55:53;8.0;78.0
26641;DHT22;14269;47.358;0.724;2023-01-10T06:58:34;8.0;79.0
26641;DHT22;14269;47.358;0.724;2023-01-10T07:01:16;8.0;79.0
26641;DHT22;14269;47.358;0.724;2023-01-10T07:03:56;8.0;79.0
26641;DHT22;14269;47.358;0.724;2023-01-10T07:06:28;8.0;79.0
26641;DHT22;14269;47.358;0.724;2023-01-10T07:08:59;8.0;79.0
26641;DHT22;14269;47.358;0.724;2023-01-10T07:11:32;8.0;80.0
26641;DHT22;14269;47.358;0.724;2023-01-10T07:14:03;8.0;80.0
26641;DHT22;14269;47.358;0.724;2023-01-10T07:16:34;8.0;80.0
26641;DHT22;14269;47.358;0.724;2023-01-10T07:19:06;8.0;80.0
26641;DHT22;14269;47.358;0.724;2023-01-10T07:21:38;8.0;80.0
26641;DHT22;14269;47.358;0.724;2023-01-10T07:24:09;8.0;80.0
26641;DHT22;14269;47.358;0.724;2023-01-10T07:26:41;8.0;80.0
26641;DHT22;14269;47.358;0.724;2023-01-10T07:29:13;8.0;80.0
26641;DHT22;14269;47.358;0.724;2023-01-10T07:31:44;8.0;80.0
26641;DHT22;14269;47.358;0.724;2023-01-10T07:34:16;8.0;80.0
26641;DHT22;14269;47.358;0.724;2023-01-10T07:36:48;8.0;80.0
26641;DHT22;14269;47.358;0.724;2023-01-10T07:39:19;8.0;81.0
26641;DHT22;14269;47.358;0.724;2023-01-10T07:41:52;8.0;81.0
26641;DHT22;14269;47.358;0.724;2023-01-10T07:44:33;8.0;81.0
26641;DHT22;14269;47.358;0.724;2023-01-10T07:47:04;8.0;81.0
26641;DHT22;14269;47.358;0.724;2023-01-10T07:49:36;8.0;81.0
26641;DHT22;14269;47.358;0.724;2023-01-10T07:52:08;8.0;81.0
26641;DHT22;14269;47.358;0.724;2023-01-10T07:54:39;8.0;81.0
26641;DHT22;14269;47.358;0.724;2023-01-10T07:57:11;8.0;81.0
26641;DHT22;14269;47.358;0.724;2023-01-10T07:59:42;8.0;81.0
26641;DHT22;14269;47.358;0.724;2023-01-10T08:02:14;8.0;81.0
26641;DHT22;14269;47.358;0.724;2023-01-10T08:04:46;8.0;81.0
26641;DHT22;14269;47.358;0.724;2023-01-10T08:07:17;8.0;80.0
26641;DHT22;14269;47.358;0.724;2023-01-10T08:09:49;8.0;80.0
26641;DHT22;14269;47.358;0.724;2023-01-10T08:12:23;8.0;80.0
26641;DHT22;14269;47.358;0.724;2023-01-10T08:15:03;8.0;80.0
26641;DHT22;14269;47.358;0.724;2023-01-10T08:17:35;8.0;80.0
26641;DHT22;14269;47.358;0.724;2023-01-10T08:20:07;8.0;80.0
26641;DHT22;14269;47.358;0.724;2023-01-10T08:22:48;8.0;80.0
26641;DHT22;14269;47.358;0.724;2023-01-10T08:25:19;8.0;80.0
26641;DHT22;14269;47.358;0.724;2023-01-10T08:27:51;8.0;80.0
26641;DHT22;14269;47.358;0.724;2023-01-10T08:30:22;8.0;80.0
26641;DHT22;14269;47.358;0.724;2023-01-10T08:32:54;8.0;80.0
26641;DHT22;14269;47.358;0.724;2023-01-10T08:35:26;8.0;80.0
26641;DHT22;14269;47.358;0.724;2023-01-10T08:37:58;8.0;80.0
26641;DHT22;14269;47.358;0.724;2023-01-10T08:40:29;8.0;80.0
26641;DHT22;14269;47.358;0.724;2023-01-10T08:43:03;8.0;80.0
26641;DHT22;14269;47.358;0.724;2023-01-10T08:45:43;8.0;80.0
26641;DHT22;14269;47.358;0.724;2023-01-10T08:48:14;8.0;80.0
26641;DHT22;14269;47.358;0.724;2023-01-10T08:50:46;8.0;80.0
26641;DHT22;14269;47.358;0.724;2023-01-10T08:53:17;9.0;80.0
26641;DHT22;14269;47.358;0.724;2023-01-10T08:55:49;9.0;81.0
26641;DHT22;14269;47.358;0.724;2023-01-10T08:58:21;8.0;82.0
26641;DHT22;14269;47.358;0.724;2023-01-10T09:00:52;8.0;83.0
26641;DHT22;14269;47.358;0.724;2023-01-10T09:03:24;8.0;84.0
26641;DHT22;14269;47.358;0.724;2023-01-10T09:05:57;9.0;84.0
26641;DHT22;14269;47.358;0.724;2023-01-10T09:08:37;8.0;84.0
26641;DHT22;14269;47.358;0.724;2023-01-10T09:11:09;9.0;84.0
26641;DHT22;14269;47.358;0.724;2023-01-10T09:13:41;8.0;85.0
26641;DHT22;14269;47.358;0.724;2023-01-10T09:16:12;9.0;85.0
26641;DHT22;14269;47.358;0.724;2023-01-10T09:18:44;9.0;85.0
26641;DHT22;14269;47.358;0.724;2023-01-10T09:21:16;9.0;85.0
26641;DHT22;14269;47.358;0.724;2023-01-10T09:23:47;9.0;85.0
26641;DHT22;14269;47.358;0.724;2023-01-10T09:26:19;9.0;85.0
26641;DHT22;14269;47.358;0.724;2023-01-10T09:28:50;9.0;86.0
26641;DHT22;14269;47.358;0.724;2023-01-10T09:31:22;9.0;85.0
26641;DHT22;14269;47.358;0.724;2023-01-10T09:33:54;9.0;85.0
26641;DHT22;14269;47.358;0.724;2023-01-10T09:36:25;9.0;85.0
26641;DHT22;14269;47.358;0.724;2023-01-10T09:38:57;9.0;85.0
26641;DHT22;14269;47.358;0.724;2023-01-10T09:41:46;9.0;85.0
26641;DHT22;14269;47.358;0.724;2023-01-10T09:44:29;9.0;85.0
26641;DHT22;14269;47.358;0.724;2023-01-10T09:47:18;9.0;85.0
26641;DHT22;14269;47.358;0.724;2023-01-10T09:50:02;9.0;86.0
26641;DHT22;14269;47.358;0.724;2023-01-10T09:52:38;9.0;86.0
26641;DHT22;14269;47.358;0.724;2023-01-10T09:55:24;9.0;86.0
26641;DHT22;14269;47.358;0.724;2023-01-10T09:58:04;9.0;86.0
26641;DHT22;14269;47.358;0.724;2023-01-10T10:00:43;9.0;86.0
26641;DHT22;14269;47.358;0.724;2023-01-10T10:03:29;9.0;86.0
26641;DHT22;14269;47.358;0.724;2023-01-10T10:06:08;9.0;86.0
26641;DHT22;14269;47.358;0.724;2023-01-10T10:08:47;9.0;86.0
26641;DHT22;14269;47.358;0.724;2023-01-10T10:11:34;9.0;86.0
26641;DHT22;14269;47.358;0.724;2023-01-10T10:14:18;9.0;86.0
26641;DHT22;14269;47.358;0.724;2023-01-10T10:17:05;9.0;85.0
26641;DHT22;14269;47.358;0.724;2023-01-10T10:19:54;9.0;85.0
26641;DHT22;14269;47.358;0.724;2023-01-10T10:22:43;9.0;86.0
26641;DHT22;14269;47.358;0.724;2023-01-10T10:25:31;9.0;85.0
26641;DHT22;14269;47.358;0.724;2023-01-10T10:28:22;9.0;86.0
26641;DHT22;14269;47.358;0.724;2023-01-10T10:31:08;9.0;86.0
26641;DHT22;14269;47.358;0.724;2023-01-10T10:33:58;9.0;86.0
26641;DHT22;14269;47.358;0.724;2023-01-10T10:36:38;9.0;86.0
26641;DHT22;14269;47.358;0.724;2023-01-10T10:39:19;9.0;85.0
26641;DHT22;14269;47.358;0.724;2023-01-10T10:41:59;9.0;86.0
26641;DHT22;14269;47.358;0.724;2023-01-10T10:44:35;9.0;85.0
26641;DHT22;14269;47.358;0.724;2023-01-10T10:47:15;9.0;85.0
26641;DHT22;14269;47.358;0.724;2023-01-10T10:49:55;9.0;85.0
26641;DHT22;14269;47.358;0.724;2023-01-10T10:52:35;9.0;86.0
26641;DHT22;14269;47.358;0.724;2023-01-10T10:55:13;9.0;85.0
26641;DHT22;14269;47.358;0.724;2023-01-10T10:57:48;9.0;85.0
26641;DHT22;14269;47.358;0.724;2023-01-10T11:00:21;9.0;86.0
26641;DHT22;14269;47.358;0.724;2023-01-10T11:03:09;9.0;85.0
26641;DHT22;14269;47.358;0.724;2023-01-10T11:05:46;9.0;86.0
26641;DHT22;14269;47.358;0.724;2023-01-10T11:08:27;9.0;86.0
26641;DHT22;14269;47.358;0.724;2023-01-10T11:11:17;10.0;86.0
26641;DHT22;14269;47.358;0.724;2023-01-10T11:13:53;9.0;86.0
26641;DHT22;14269;47.358;0.724;2023-01-10T11:16:33;10.0;86.0
26641;DHT22;14269;47.358;0.724;2023-01-10T11:19:16;10.0;86.0
26641;DHT22;14269;47.358;0.724;2023-01-10T11:21:55;10.0;86.0
26641;DHT22;14269;47.358;0.724;2023-01-10T11:24:38;10.0;86.0
26641;DHT22;14269;47.358;0.724;2023-01-10T11:27:20;10.0;85.0
26641;DHT22;14269;47.358;0.724;2023-01-10T11:30:02;10.0;85.0
26641;DHT22;14269;47.358;0.724;2023-01-10T11:32:50;10.0;85.0
26641;DHT22;14269;47.358;0.724;2023-01-10T11:35:25;10.0;85.0
26641;DHT22;14269;47.358;0.724;2023-01-10T11:38:16;10.0;85.0
26641;DHT22;14269;47.358;0.724;2023-01-10T11:40:58;10.0;85.0
26641;DHT22;14269;47.358;0.724;2023-01-10T11:43:40;10.0;85.0
26641;DHT22;14269;47.358;0.724;2023-01-10T11:46:22;10.0;85.0
26641;DHT22;14269;47.358;0.724;2023-01-10T11:49:04;10.0;86.0
26641;DHT22;14269;47.358;0.724;2023-01-10T11:51:46;10.0;86.0
26641;DHT22;14269;47.358;0.724;2023-01-10T11:54:27;10.0;86.0
26641;DHT22;14269;47.358;0.724;2023-01-10T11:57:14;10.0;86.0
26641;DHT22;14269;47.358;0.724;2023-01-10T11:59:50;10.0;86.0
26641;DHT22;14269;47.358;0.724;2023-01-10T12:02:33;10.0;86.0
26641;DHT22;14269;47.358;0.724;2023-01-10T12:05:20;10.0;85.0
26641;DHT22;14269;47.358;0.724;2023-01-10T12:07:56;10.0;85.0
26641;DHT22;14269;47.358;0.724;2023-01-10T12:10:36;10.0;85.0
26641;DHT22;14269;47.358;0.724;2023-01-10T12:13:13;10.0;85.0
26641;DHT22;14269;47.358;0.724;2023-01-10T12:15:49;10.0;85.0
26641;DHT22;14269;47.358;0.724;2023-01-10T12:18:21;10.0;85.0
26641;DHT22;14269;47.358;0.724;2023-01-10T12:20:54;10.0;86.0
26641;DHT22;14269;47.358;0.724;2023-01-10T12:23:39;10.0;85.0
26641;DHT22;14269;47.358;0.724;2023-01-10T12:26:16;11.0;86.0
26641;DHT22;14269;47.358;0.724;2023-01-10T12:28:51;11.0;86.0
26641;DHT22;14269;47.358;0.724;2023-01-10T12:31:31;11.0;85.0
26641;DHT22;14269;47.358;0.724;2023-01-10T12:34:15;11.0;86.0
26641;DHT22;14269;47.358;0.724;2023-01-10T12:36:58;11.0;85.0
26641;DHT22;14269;47.358;0.724;2023-01-10T12:39:40;11.0;85.0
26641;DHT22;14269;47.358;0.724;2023-01-10T12:44:52;11.0;85.0
26641;DHT22;14269;47.358;0.724;2023-01-10T12:47:33;11.0;85.0
26641;DHT22;14269;47.358;0.724;2023-01-10T12:50:15;11.0;85.0
26641;DHT22;14269;47.358;0.724;2023-01-10T12:52:58;11.0;85.0
26641;DHT22;14269;47.358;0.724;2023-01-10T12:55:37;11.0;85.0
26641;DHT22;14269;47.358;0.724;2023-01-10T12:58:21;11.0;85.0
26641;DHT22;14269;47.358;0.724;2023-01-10T13:01:00;11.0;86.0
26641;DHT22;14269;47.358;0.724;2023-01-10T13:03:42;11.0;85.0
26641;DHT22;14269;47.358;0.724;2023-01-10T13:06:28;11.0;85.0
26641;DHT22;14269;47.358;0.724;2023-01-10T13:09:07;11.0;85.0
26641;DHT22;14269;47.358;0.724;2023-01-10T13:11:50;11.0;85.0
26641;DHT22;14269;47.358;0.724;2023-01-10T13:14:30;11.0;85.0
26641;DHT22;14269;47.358;0.724;2023-01-10T13:17:27;11.0;85.0
26641;DHT22;14269;47.358;0.724;2023-01-10T13:20:38;11.0;85.0
26641;DHT22;14269;47.358;0.724;2023-01-10T13:23:20;11.0;86.0
26641;DHT22;14269;47.358;0.724;2023-01-10T13:25:58;11.0;86.0
26641;DHT22;14269;47.358;0.724;2023-01-10T13:28:39;12.0;86.0
26641;DHT22;14269;47.358;0.724;2023-01-10T13:31:22;12.0;86.0
26641;DHT22;14269;47.358;0.724;2023-01-10T13:34:03;12.0;85.0
26641;DHT22;14269;47.358;0.724;2023-01-10T13:36:46;12.0;86.0
26641;DHT22;14269;47.358;0.724;2023-01-10T13:39:29;12.0;86.0
26641;DHT22;14269;47.358;0.724;2023-01-10T13:45:16;12.0;86.0
26641;DHT22;14269;47.358;0.724;2023-01-10T13:48:24;12.0;86.0
26641;DHT22;14269;47.358;0.724;2023-01-10T13:51:14;12.0;85.0
26641;DHT22;14269;47.358;0.724;2023-01-10T13:53:57;12.0;85.0
26641;DHT22;14269;47.358;0.724;2023-01-10T13:56:37;12.0;85.0
26641;DHT22;14269;47.358;0.724;2023-01-10T14:02:28;12.0;85.0
26641;DHT22;14269;47.358;0.724;2023-01-10T14:05:16;12.0;85.0
26641;DHT22;14269;47.358;0.724;2023-01-10T14:07:53;12.0;85.0
26641;DHT22;14269;47.358;0.724;2023-01-10T14:10:34;12.0;85.0
26641;DHT22;14269;47.358;0.724;2023-01-10T14:13:14;12.0;85.0
26641;DHT22;14269;47.358;0.724;2023-01-10T14:15:47;12.0;86.0
26641;DHT22;14269;47.358;0.724;2023-01-10T14:18:20;12.0;86.0
26641;DHT22;14269;47.358;0.724;2023-01-10T14:21:04;12.0;85.0
26641;DHT22;14269;47.358;0.724;2023-01-10T14:23:47;12.0;86.0
26641;DHT22;14269;47.358;0.724;2023-01-10T14:26:30;12.0;86.0
26641;DHT22;14269;47.358;0.724;2023-01-10T14:29:09;12.0;86.0
26641;DHT22;14269;47.358;0.724;2023-01-10T14:31:51;12.0;86.0
26641;DHT22;14269;47.358;0.724;2023-01-10T14:34:34;12.0;86.0
26641;DHT22;14269;47.358;0.724;2023-01-10T14:37:16;12.0;86.0
26641;DHT22;14269;47.358;0.724;2023-01-10T14:39:55;12.0;86.0
26641;DHT22;14269;47.358;0.724;2023-01-10T14:42:36;12.0;86.0
26641;DHT22;14269;47.358;0.724;2023-01-10T14:45:28;12.0;86.0
26641;DHT22;14269;47.358;0.724;2023-01-10T14:48:27;13.0;86.0
26641;DHT22;14269;47.358;0.724;2023-01-10T14:51:14;13.0;86.0
26641;DHT22;14269;47.358;0.724;2023-01-10T14:53:58;12.0;86.0
26641;DHT22;14269;47.358;0.724;2023-01-10T14:56:38;13.0;86.0
26641;DHT22;14269;47.358;0.724;2023-01-10T14:59:21;13.0;86.0
26641;DHT22;14269;47.358;0.724;2023-01-10T15:02:00;13.0;86.0
26641;DHT22;14269;47.358;0.724;2023-01-10T15:04:48;13.0;85.0
26641;DHT22;14269;47.358;0.724;2023-01-10T15:07:23;13.0;85.0
26641;DHT22;14269;47.358;0.724;2023-01-10T15:10:21;13.0;85.0
26641;DHT22;14269;47.358;0.724;2023-01-10T15:12:57;13.0;86.0
26641;DHT22;14269;47.358;0.724;2023-01-10T15:15:37;13.0;86.0
26641;DHT22;14269;47.358;0.724;2023-01-10T15:18:27;13.0;85.0
26641;DHT22;14269;47.358;0.724;2023-01-10T15:21:00;13.0;85.0
26641;DHT22;14269;47.358;0.724;2023-01-10T15:23:34;13.0;85.0
26641;DHT22;14269;47.358;0.724;2023-01-10T15:26:16;13.0;85.0
26641;DHT22;14269;47.358;0.724;2023-01-10T15:29:13;13.0;85.0
26641;DHT22;14269;47.358;0.724;2023-01-10T15:32:07;13.0;85.0
26641;DHT22;14269;47.358;0.724;2023-01-10T15:34:50;13.0;85.0
26641;DHT22;14269;47.358;0.724;2023-01-10T15:37:34;13.0;85.0
26641;DHT22;14269;47.358;0.724;2023-01-10T15:40:20;13.0;85.0
26641;DHT22;14269;47.358;0.724;2023-01-10T15:43:10;13.0;85.0
26641;DHT22;14269;47.358;0.724;2023-01-10T15:45:46;13.0;85.0
26641;DHT22;14269;47.358;0.724;2023-01-10T15:48:28;13.0;85.0
26641;DHT22;14269;47.358;0.724;2023-01-10T15:51:03;13.0;85.0
26641;DHT22;14269;47.358;0.724;2023-01-10T15:53:51;13.0;85.0
26641;DHT22;14269;47.358;0.724;2023-01-10T15:56:26;13.0;85.0
26641;DHT22;14269;47.358;0.724;2023-01-10T15:59:19;13.0;85.0
26641;DHT22;14269;47.358;0.724;2023-01-10T16:02:03;13.0;85.0
26641;DHT22;14269;47.358;0.724;2023-01-10T16:04:39;13.0;85.0
26641;DHT22;14269;47.358;0.724;2023-01-10T16:07:13;13.0;85.0
26641;DHT22;14269;47.358;0.724;2023-01-10T16:09:55;13.0;85.0
26641;DHT22;14269;47.358;0.724;2023-01-10T16:13:38;13.0;85.0
26641;DHT22;14269;47.358;0.724;2023-01-10T16:16:17;13.0;85.0
26641;DHT22;14269;47.358;0.724;2023-01-10T16:18:58;13.0;85.0
26641;DHT22;14269;47.358;0.724;2023-01-10T16:21:33;13.0;85.0
26641;DHT22;14269;47.358;0.724;2023-01-10T16:24:16;13.0;85.0
26641;DHT22;14269;47.358;0.724;2023-01-10T16:26:54;13.0;85.0
26641;DHT22;14269;47.358;0.724;2023-01-10T16:29:34;13.0;85.0
26641;DHT22;14269;47.358;0.724;2023-01-10T16:32:12;13.0;85.0
26641;DHT22;14269;47.358;0.724;2023-01-10T16:34:48;13.0;85.0
26641;DHT22;14269;47.358;0.724;2023-01-10T16:37:20;13.0;84.0
26641;DHT22;14269;47.358;0.724;2023-01-10T16:39:51;13.0;84.0
26641;DHT22;14269;47.358;0.724;2023-01-10T16:43:28;13.0;84.0
26641;DHT22;14269;47.358;0.724;2023-01-10T16:46:05;13.0;83.0
26641;DHT22;14269;47.358;0.724;2023-01-10T16:48:37;13.0;83.0
26641;DHT22;14269;47.358;0.724;2023-01-10T16:51:15;13.0;83.0
26641;DHT22;14269;47.358;0.724;2023-01-10T16:53:51;13.0;83.0
26641;DHT22;14269;47.358;0.724;2023-01-10T16:56:26;13.0;83.0
26641;DHT22;14269;47.358;0.724;2023-01-10T16:59:04;13.0;83.0
26641;DHT22;14269;47.358;0.724;2023-01-10T17:01:38;13.0;83.0
26641;DHT22;14269;47.358;0.724;2023-01-10T17:04:20;13.0;83.0
26641;DHT22;14269;47.358;0.724;2023-01-10T17:06:59;13.0;83.0
26641;DHT22;14269;47.358;0.724;2023-01-10T17:09:30;13.0;83.0
26641;DHT22;14269;47.358;0.724;2023-01-10T17:12:05;13.0;83.0
26641;DHT22;14269;47.358;0.724;2023-01-10T17:14:44;13.0;84.0
26641;DHT22;14269;47.358;0.724;2023-01-10T17:17:16;13.0;84.0
26641;DHT22;14269;47.358;0.724;2023-01-10T17:19:47;13.0;84.0
26641;DHT22;14269;47.358;0.724;2023-01-10T17:22:19;13.0;84.0
26641;DHT22;14269;47.358;0.724;2023-01-10T17:24:51;13.0;84.0
26641;DHT22;14269;47.358;0.724;2023-01-10T17:27:22;13.0;85.0
26641;DHT22;14269;47.358;0.724;2023-01-10T17:29:54;13.0;85.0
26641;DHT22;14269;47.358;0.724;2023-01-10T17:32:25;13.0;85.0
26641;DHT22;14269;47.358;0.724;2023-01-10T17:34:57;13.0;85.0
26641;DHT22;14269;47.358;0.724;2023-01-10T17:37:29;13.0;85.0